createdAt,value
2023-05-20T00:04:04.180Z,4.15
2023-05-20T00:09:05.818Z,3.88
2023-05-20T00:14:07.321Z,3.85
2023-05-20T00:19:08.820Z,3.85
2023-05-20T00:24:10.522Z,3.70
2023-05-20T00:29:12.243Z,3.92
2023-05-20T00:34:13.798Z,3.58
2023-05-20T00:39:15.420Z,4.03
2023-05-20T00:44:18.796Z,3.42
2023-05-20T00:49:20.988Z,3.83
2023-05-20T00:54:22.574Z,4.10
2023-05-20T00:59:25.031Z,3.92
2023-05-20T01:04:27.020Z,3.85
2023-05-20T01:09:31.263Z,4.30
2023-05-20T01:14:38.098Z,3.83
2023-05-20T01:19:44.211Z,4.10
2023-05-20T01:24:48.587Z,3.75
2023-05-20T01:29:52.122Z,3.78
2023-05-20T01:34:55.118Z,4.03
2023-05-20T01:39:57.266Z,4.10
2023-05-20T01:44:59.501Z,3.92
2023-05-20T01:50:01.287Z,4.47
2023-05-20T01:55:02.890Z,4.35
2023-05-20T02:00:06.259Z,4.20
2023-05-20T02:05:08.234Z,4.38
2023-05-20T02:10:10.513Z,4.97
2023-05-20T02:15:12.289Z,4.68
2023-05-20T02:20:14.077Z,5.13
2023-05-20T02:25:16.127Z,4.45
2023-05-20T02:30:18.138Z,4.43
2023-05-20T02:35:19.737Z,4.53
2023-05-20T02:40:21.352Z,4.70
2023-05-20T02:45:22.928Z,4.18
2023-05-20T02:50:24.669Z,4.25
2023-05-20T02:55:26.239Z,4.35
2023-05-20T03:00:30.550Z,4.40
2023-05-20T03:05:32.814Z,4.72
2023-05-20T03:10:34.758Z,4.47
2023-05-20T03:15:36.944Z,4.65
2023-05-20T03:20:38.726Z,4.55
2023-05-20T03:25:40.717Z,4.35
2023-05-20T03:30:42.281Z,4.25
2023-05-20T03:35:43.904Z,4.05
2023-05-20T03:40:45.481Z,4.32
2023-05-20T03:45:47.068Z,4.53
2023-05-20T03:50:49.755Z,4.30
2023-05-20T03:55:51.334Z,3.85
2023-05-20T04:00:52.900Z,4.45
2023-05-20T04:05:54.476Z,4.05
2023-05-20T04:10:57.482Z,4.07
2023-05-20T04:16:01.542Z,4.32
2023-05-20T04:21:03.185Z,4.10
2023-05-20T04:26:04.777Z,4.60
2023-05-20T04:31:06.600Z,4.65
2023-05-20T04:36:12.153Z,4.40
2023-05-20T04:41:14.071Z,4.80
2023-05-20T04:46:16.595Z,4.10
2023-05-20T04:51:18.202Z,4.82
2023-05-20T04:56:19.775Z,4.32
2023-05-20T05:01:21.431Z,4.55
2023-05-20T05:06:23.013Z,4.03
2023-05-20T05:11:24.606Z,4.22
2023-05-20T05:16:26.422Z,4.35
2023-05-20T05:21:28.070Z,4.30
2023-05-20T05:26:29.704Z,4.88
2023-05-20T05:31:31.325Z,4.70
2023-05-20T05:36:33.964Z,4.85
2023-05-20T05:41:35.892Z,4.55
2023-05-20T05:46:37.491Z,4.68
2023-05-20T05:51:39.254Z,4.47
2023-05-20T05:56:40.965Z,4.72
2023-05-20T06:01:42.604Z,4.78
2023-05-20T06:06:44.203Z,4.53
2023-05-20T06:11:45.981Z,4.60
2023-05-20T06:16:47.616Z,4.20
2023-05-20T06:21:49.250Z,4.35
2023-05-20T06:26:51.171Z,4.25
2023-05-20T06:31:52.740Z,4.05
2023-05-20T06:36:54.361Z,4.40
2023-05-20T06:41:56.002Z,4.28
2023-05-20T06:46:57.586Z,3.75
2023-05-20T06:51:59.166Z,4.28
2023-05-20T06:57:00.921Z,4.45
2023-05-20T07:02:03.097Z,3.88
2023-05-20T07:07:04.866Z,4.25
2023-05-20T07:12:06.909Z,4.10
2023-05-20T07:17:08.516Z,3.95
2023-05-20T07:22:10.078Z,3.53
2023-05-20T07:27:11.711Z,4.05
2023-05-20T07:32:13.317Z,4.32
2023-05-20T07:37:16.021Z,4.05
2023-05-20T07:42:17.644Z,4.18
2023-05-20T07:47:19.313Z,4.38
2023-05-20T07:52:20.901Z,4.70
2023-05-20T07:57:22.546Z,4.10
2023-05-20T08:02:24.182Z,4.45
2023-05-20T08:07:25.898Z,3.63
2023-05-20T08:12:27.452Z,3.95
2023-05-20T08:17:29.070Z,4.05
2023-05-20T08:22:31.432Z,4.50
2023-05-20T08:27:33.008Z,4.30
2023-05-20T08:32:34.581Z,4.47
2023-05-20T08:37:36.292Z,3.88
2023-05-20T08:42:41.809Z,4.07
2023-05-20T08:47:44.409Z,4.22
2023-05-20T08:52:48.293Z,4.10
2023-05-20T08:57:56.021Z,4.00
2023-05-20T09:03:01.155Z,4.90
2023-05-20T09:08:12.359Z,3.53
2023-05-20T09:13:13.904Z,3.95
2023-05-20T09:18:15.642Z,4.38
2023-05-20T09:23:19.542Z,4.20
2023-05-20T09:28:26.844Z,4.05
2023-05-20T09:33:32.396Z,4.93
2023-05-20T09:38:39.111Z,4.20
2023-05-20T09:43:41.206Z,3.97
2023-05-20T09:48:43.394Z,3.60
2023-05-20T09:53:45.151Z,4.55
2023-05-20T09:58:49.754Z,4.05
2023-05-20T10:03:53.330Z,4.28
2023-05-20T10:09:01.087Z,4.00
2023-05-20T10:14:36.553Z,3.55
2023-05-20T10:19:38.285Z,3.90
2023-05-20T10:24:42.977Z,3.80
2023-05-20T10:29:52.408Z,3.72
2023-05-20T10:35:00.181Z,4.28
2023-05-20T10:40:21.420Z,3.38
2023-05-20T10:45:28.047Z,4.00
2023-05-20T10:50:37.610Z,3.97
2023-05-20T10:55:41.596Z,3.90
2023-05-20T11:00:43.667Z,4.30
2023-05-20T11:05:48.891Z,4.10
2023-05-20T11:10:50.620Z,4.10
2023-05-20T11:15:52.500Z,3.97
2023-05-20T11:20:54.483Z,4.38
2023-05-20T11:25:57.449Z,4.20
2023-05-20T11:31:00.041Z,4.68
2023-05-20T11:36:03.389Z,4.43
2023-05-20T11:41:07.426Z,4.20
2023-05-20T11:46:09.954Z,3.90
2023-05-20T11:51:11.523Z,4.32
2023-05-20T11:56:14.606Z,3.88
2023-05-20T12:01:22.162Z,4.18
2023-05-20T12:06:24.586Z,4.30
2023-05-20T12:11:26.148Z,4.35
2023-05-20T12:16:27.972Z,4.55
2023-05-20T12:21:30.158Z,4.00
2023-05-20T12:26:35.234Z,4.55
2023-05-20T12:31:37.408Z,4.32
2023-05-20T12:36:39.077Z,4.43
2023-05-20T12:41:42.867Z,4.35
2023-05-20T12:46:44.636Z,4.68
2023-05-20T12:51:46.245Z,4.50
2023-05-20T12:56:48.466Z,5.32
2023-05-20T13:01:50.470Z,5.93
2023-05-20T13:06:52.205Z,4.82
2023-05-20T13:11:53.825Z,4.60
2023-05-20T13:16:55.647Z,4.47
2023-05-20T13:21:57.342Z,4.90
2023-05-20T13:26:59.066Z,4.68
2023-05-20T13:32:02.107Z,4.68
2023-05-20T13:37:03.845Z,4.68
2023-05-20T13:42:05.659Z,4.82
2023-05-20T13:47:07.484Z,4.57
2023-05-20T13:52:09.167Z,4.22
2023-05-20T13:57:10.976Z,4.85
2023-05-20T14:02:12.744Z,4.47
2023-05-20T14:07:14.398Z,4.50
2023-05-20T14:12:16.036Z,4.20
2023-05-20T14:17:17.885Z,4.43
2023-05-20T14:22:20.016Z,4.97
2023-05-20T14:27:22.840Z,4.38
2023-05-20T14:32:24.711Z,4.10
2023-05-20T14:37:28.028Z,4.20
2023-05-20T14:42:29.640Z,4.40
2023-05-20T14:47:31.268Z,4.40
2023-05-20T14:52:32.961Z,4.53
2023-05-20T14:57:34.575Z,4.65
2023-05-20T15:02:36.383Z,4.82
2023-05-20T15:07:38.388Z,4.50
2023-05-20T15:12:40.366Z,4.72
2023-05-20T15:17:41.990Z,4.70
2023-05-20T15:22:47.829Z,4.63
2023-05-20T15:27:50.149Z,4.78
2023-05-20T15:32:51.797Z,4.80
2023-05-20T15:37:53.472Z,4.50
2023-05-20T15:42:55.120Z,4.28
2023-05-20T15:47:56.924Z,4.38
2023-05-20T15:52:58.636Z,4.88
2023-05-20T15:58:00.284Z,4.60
2023-05-20T16:03:02.093Z,5.63
2023-05-20T16:08:03.778Z,4.57
2023-05-20T16:13:05.479Z,3.75
2023-05-20T16:18:07.275Z,4.43
2023-05-20T16:23:08.899Z,4.90
2023-05-20T16:28:10.481Z,4.30
2023-05-20T16:33:13.407Z,4.25
2023-05-20T16:38:15.093Z,3.88
2023-05-20T16:43:16.671Z,3.40
2023-05-20T16:48:18.264Z,2.97
2023-05-20T16:53:19.949Z,3.38
2023-05-20T16:58:21.599Z,3.58
2023-05-20T17:03:23.210Z,3.20
2023-05-20T17:08:24.807Z,3.30
2023-05-20T17:13:26.756Z,3.53
2023-05-20T17:18:28.474Z,3.80
2023-05-20T17:23:30.227Z,2.88
2023-05-20T17:28:32.012Z,3.17
2023-05-20T17:33:34.139Z,4.05
2023-05-20T17:38:36.475Z,4.00
2023-05-20T17:43:38.520Z,3.85
2023-05-20T17:48:45.429Z,3.90
2023-05-20T17:53:47.609Z,4.07
2023-05-20T17:58:50.010Z,3.80
2023-05-20T18:03:52.416Z,3.97
2023-05-20T18:08:56.501Z,3.53
2023-05-20T18:14:00.041Z,3.75
2023-05-20T18:19:03.396Z,3.80
2023-05-20T18:24:06.326Z,3.47
2023-05-20T18:29:08.635Z,4.28
2023-05-20T18:34:11.262Z,4.70
2023-05-20T18:39:14.794Z,4.85
2023-05-20T18:44:18.588Z,4.43
2023-05-20T18:49:21.062Z,4.57
2023-05-20T18:54:23.382Z,4.68
2023-05-20T18:59:25.772Z,5.25
2023-05-20T19:04:28.142Z,5.07
2023-05-20T19:09:30.500Z,4.95
2023-05-20T19:14:32.880Z,4.30
2023-05-20T19:19:35.230Z,4.32
2023-05-20T19:24:37.800Z,5.03
2023-05-20T19:29:40.171Z,5.15
2023-05-20T19:34:42.622Z,4.85
2023-05-20T19:39:45.002Z,4.80
2023-05-20T19:44:47.397Z,5.00
2023-05-20T19:49:49.852Z,5.45
2023-05-20T19:54:52.231Z,5.10
2023-05-20T19:59:54.625Z,5.18
2023-05-20T20:04:57.051Z,4.80
2023-05-20T20:09:59.527Z,4.45
2023-05-20T20:15:01.895Z,4.30
2023-05-20T20:20:10.785Z,4.90
2023-05-20T20:25:14.593Z,5.32
2023-05-20T20:30:18.159Z,4.65
2023-05-20T20:35:23.218Z,4.75
2023-05-20T20:40:26.225Z,5.07
2023-05-20T20:45:28.402Z,5.18
2023-05-20T20:50:31.599Z,5.18
2023-05-20T20:55:34.721Z,5.05
2023-05-20T21:00:37.356Z,5.07
2023-05-20T21:05:39.205Z,5.90
2023-05-20T21:10:41.133Z,5.28
2023-05-20T21:15:43.101Z,5.40
2023-05-20T21:20:44.650Z,5.18
2023-05-20T21:25:46.514Z,5.85
2023-05-20T21:30:48.086Z,5.30
2023-05-20T21:35:49.707Z,5.38
2023-05-20T21:40:51.310Z,4.97
2023-05-20T21:45:52.959Z,5.18
2023-05-20T21:50:54.556Z,5.25
2023-05-20T21:55:56.307Z,4.32
2023-05-20T22:00:58.062Z,4.70
2023-05-20T22:05:59.611Z,5.00
2023-05-20T22:11:05.481Z,5.45
2023-05-20T22:16:07.991Z,5.05
2023-05-20T22:21:09.603Z,5.35
2023-05-20T22:26:11.186Z,5.30
2023-05-20T22:31:13.419Z,5.38
2023-05-20T22:36:14.990Z,5.50
2023-05-20T22:41:16.581Z,5.20
2023-05-20T22:46:18.189Z,5.22
2023-05-20T22:51:21.394Z,4.80
2023-05-20T22:56:23.777Z,5.03
2023-05-20T23:01:25.339Z,5.00
2023-05-20T23:06:26.934Z,4.88
2023-05-20T23:11:28.505Z,4.28
2023-05-20T23:16:30.524Z,4.82
2023-05-20T23:21:32.154Z,4.30
2023-05-20T23:26:34.618Z,4.72
2023-05-20T23:31:36.772Z,4.97
2023-05-20T23:36:41.962Z,4.45
2023-05-20T23:41:43.689Z,5.35
2023-05-20T23:46:45.346Z,4.65
2023-05-20T23:51:46.944Z,5.15
2023-05-20T23:56:49.416Z,4.85
